sensor_id;sensor_type;location;lat;lon;timestamp;P1;durP1;ratioP1;P2;durP2;ratioP2
71867;SDS011;59738;48.324;14.230;2022-09-09T00:02:11;9.60;;;4.00;;
71867;SDS011;59738;48.324;14.230;2022-09-09T00:04:44;6.38;;;3.88;;
71867;SDS011;59738;48.324;14.230;2022-09-09T00:07:13;4.95;;;3.50;;
71867;SDS011;59738;48.324;14.230;2022-09-09T00:09:45;7.88;;;3.00;;
71867;SDS011;59738;48.324;14.230;2022-09-09T00:12:17;5.47;;;2.70;;
71867;SDS011;59738;48.324;14.230;2022-09-09T00:14:51;4.65;;;3.20;;
71867;SDS011;59738;48.324;14.230;2022-09-09T00:17:24;7.00;;;3.53;;
71867;SDS011;59738;48.324;14.230;2022-09-09T00:20:01;4.38;;;3.08;;
71867;SDS011;59738;48.324;14.230;2022-09-09T00:22:32;4.70;;;2.58;;
71867;SDS011;59738;48.324;14.230;2022-09-09T00:25:02;4.20;;;2.30;;
71867;SDS011;59738;48.324;14.230;2022-09-09T00:27:39;4.40;;;2.58;;
71867;SDS011;59738;48.324;14.230;2022-09-09T00:30:17;4.15;;;2.35;;
71867;SDS011;59738;48.324;14.230;2022-09-09T00:32:49;4.97;;;2.53;;
71867;SDS011;59738;48.324;14.230;2022-09-09T00:35:18;6.00;;;3.58;;
71867;SDS011;59738;48.324;14.230;2022-09-09T00:37:50;11.20;;;4.90;;
71867;SDS011;59738;48.324;14.230;2022-09-09T00:40:22;9.32;;;4.57;;
71867;SDS011;59738;48.324;14.230;2022-09-09T00:42:56;11.18;;;5.18;;
71867;SDS011;59738;48.324;14.230;2022-09-09T00:45:37;8.10;;;4.82;;
71867;SDS011;59738;48.324;14.230;2022-09-09T00:48:14;13.23;;;4.40;;
71867;SDS011;59738;48.324;14.230;2022-09-09T00:50:44;8.53;;;4.87;;
71867;SDS011;59738;48.324;14.230;2022-09-09T00:53:19;9.20;;;4.85;;
71867;SDS011;59738;48.324;14.230;2022-09-09T00:55:53;8.48;;;5.10;;
71867;SDS011;59738;48.324;14.230;2022-09-09T00:58:26;10.32;;;4.50;;
71867;SDS011;59738;48.324;14.230;2022-09-09T01:00:56;7.95;;;4.55;;
71867;SDS011;59738;48.324;14.230;2022-09-09T01:03:29;6.40;;;3.20;;
71867;SDS011;59738;48.324;14.230;2022-09-09T01:06:02;6.78;;;3.53;;
71867;SDS011;59738;48.324;14.230;2022-09-09T01:08:45;7.85;;;3.88;;
71867;SDS011;59738;48.324;14.230;2022-09-09T01:11:21;8.10;;;4.85;;
71867;SDS011;59738;48.324;14.230;2022-09-09T01:13:53;12.65;;;6.30;;
71867;SDS011;59738;48.324;14.230;2022-09-09T01:16:27;13.67;;;6.27;;
71867;SDS011;59738;48.324;14.230;2022-09-09T01:18:56;10.93;;;6.22;;
71867;SDS011;59738;48.324;14.230;2022-09-09T01:21:29;8.18;;;5.32;;
71867;SDS011;59738;48.324;14.230;2022-09-09T01:24:05;11.75;;;4.47;;
71867;SDS011;59738;48.324;14.230;2022-09-09T01:27:01;7.63;;;3.90;;
71867;SDS011;59738;48.324;14.230;2022-09-09T01:29:29;7.37;;;4.50;;
71867;SDS011;59738;48.324;14.230;2022-09-09T01:31:58;9.75;;;5.22;;
71867;SDS011;59738;48.324;14.230;2022-09-09T01:34:27;11.32;;;5.28;;
71867;SDS011;59738;48.324;14.230;2022-09-09T01:36:57;10.02;;;4.75;;
71867;SDS011;59738;48.324;14.230;2022-09-09T01:39:27;9.88;;;5.05;;
71867;SDS011;59738;48.324;14.230;2022-09-09T01:42:02;10.70;;;4.97;;
71867;SDS011;59738;48.324;14.230;2022-09-09T01:44:32;9.05;;;4.57;;
71867;SDS011;59738;48.324;14.230;2022-09-09T01:47:01;7.47;;;3.75;;
71867;SDS011;59738;48.324;14.230;2022-09-09T01:49:30;6.72;;;3.85;;
71867;SDS011;59738;48.324;14.230;2022-09-09T01:51:59;11.55;;;3.78;;
71867;SDS011;59738;48.324;14.230;2022-09-09T01:54:31;4.87;;;3.13;;
71867;SDS011;59738;48.324;14.230;2022-09-09T01:57:08;8.07;;;3.40;;
71867;SDS011;59738;48.324;14.230;2022-09-09T01:59:48;6.80;;;3.53;;
71867;SDS011;59738;48.324;14.230;2022-09-09T02:02:23;8.85;;;3.47;;
71867;SDS011;59738;48.324;14.230;2022-09-09T02:05:07;7.35;;;3.58;;
71867;SDS011;59738;48.324;14.230;2022-09-09T02:07:42;6.10;;;2.87;;
71867;SDS011;59738;48.324;14.230;2022-09-09T02:10:26;5.53;;;3.70;;
71867;SDS011;59738;48.324;14.230;2022-09-09T02:13:26;12.25;;;5.00;;
71867;SDS011;59738;48.324;14.230;2022-09-09T02:15:55;11.23;;;5.90;;
71867;SDS011;59738;48.324;14.230;2022-09-09T02:18:30;13.02;;;6.32;;
71867;SDS011;59738;48.324;14.230;2022-09-09T02:21:00;15.47;;;8.23;;
71867;SDS011;59738;48.324;14.230;2022-09-09T02:23:29;19.10;;;9.02;;
71867;SDS011;59738;48.324;14.230;2022-09-09T02:25:57;26.85;;;12.25;;
71867;SDS011;59738;48.324;14.230;2022-09-09T02:28:27;25.60;;;13.57;;
71867;SDS011;59738;48.324;14.230;2022-09-09T02:30:57;34.08;;;14.52;;
71867;SDS011;59738;48.324;14.230;2022-09-09T02:33:33;28.47;;;12.50;;
71867;SDS011;59738;48.324;14.230;2022-09-09T02:36:02;25.42;;;11.75;;
71867;SDS011;59738;48.324;14.230;2022-09-09T02:38:33;24.35;;;10.05;;
71867;SDS011;59738;48.324;14.230;2022-09-09T02:41:08;17.80;;;7.70;;
71867;SDS011;59738;48.324;14.230;2022-09-09T02:43:37;12.30;;;5.82;;
71867;SDS011;59738;48.324;14.230;2022-09-09T02:46:13;11.47;;;6.13;;
71867;SDS011;59738;48.324;14.230;2022-09-09T02:48:56;12.07;;;6.70;;
71867;SDS011;59738;48.324;14.230;2022-09-09T02:51:33;15.80;;;7.07;;
71867;SDS011;59738;48.324;14.230;2022-09-09T02:54:07;15.18;;;7.45;;
71867;SDS011;59738;48.324;14.230;2022-09-09T02:56:40;13.35;;;7.18;;
71867;SDS011;59738;48.324;14.230;2022-09-09T02:59:13;16.80;;;7.00;;
71867;SDS011;59738;48.324;14.230;2022-09-09T03:01:40;14.00;;;5.95;;
71867;SDS011;59738;48.324;14.230;2022-09-09T03:04:09;11.27;;;5.82;;
71867;SDS011;59738;48.324;14.230;2022-09-09T03:06:38;17.48;;;6.35;;
71867;SDS011;59738;48.324;14.230;2022-09-09T03:09:15;16.83;;;6.78;;
71867;SDS011;59738;48.324;14.230;2022-09-09T03:11:43;13.60;;;6.73;;
71867;SDS011;59738;48.324;14.230;2022-09-09T03:14:13;40.00;;;8.70;;
71867;SDS011;59738;48.324;14.230;2022-09-09T03:16:40;42.22;;;8.80;;
71867;SDS011;59738;48.324;14.230;2022-09-09T03:19:09;44.30;;;8.00;;
71867;SDS011;59738;48.324;14.230;2022-09-09T03:21:37;33.80;;;8.10;;
71867;SDS011;59738;48.324;14.230;2022-09-09T03:24:05;16.90;;;7.50;;
71867;SDS011;59738;48.324;14.230;2022-09-09T03:26:33;17.35;;;7.90;;
71867;SDS011;59738;48.324;14.230;2022-09-09T03:29:01;17.05;;;6.38;;
71867;SDS011;59738;48.324;14.230;2022-09-09T03:31:31;13.95;;;6.30;;
71867;SDS011;59738;48.324;14.230;2022-09-09T03:33:59;13.13;;;6.18;;
71867;SDS011;59738;48.324;14.230;2022-09-09T03:36:29;11.80;;;5.80;;
71867;SDS011;59738;48.324;14.230;2022-09-09T03:38:57;11.43;;;5.55;;
71867;SDS011;59738;48.324;14.230;2022-09-09T03:41:28;8.43;;;4.10;;
71867;SDS011;59738;48.324;14.230;2022-09-09T03:43:58;6.80;;;4.25;;
71867;SDS011;59738;48.324;14.230;2022-09-09T03:46:27;11.80;;;5.85;;
71867;SDS011;59738;48.324;14.230;2022-09-09T03:48:56;13.27;;;6.23;;
71867;SDS011;59738;48.324;14.230;2022-09-09T03:51:24;15.23;;;6.95;;
71867;SDS011;59738;48.324;14.230;2022-09-09T03:53:51;12.07;;;6.20;;
71867;SDS011;59738;48.324;14.230;2022-09-09T03:56:24;10.90;;;5.60;;
71867;SDS011;59738;48.324;14.230;2022-09-09T03:58:53;11.50;;;6.65;;
71867;SDS011;59738;48.324;14.230;2022-09-09T04:01:21;49.30;;;7.50;;
71867;SDS011;59738;48.324;14.230;2022-09-09T04:03:48;263.85;;;9.48;;
71867;SDS011;59738;48.324;14.230;2022-09-09T04:06:18;133.82;;;8.52;;
71867;SDS011;59738;48.324;14.230;2022-09-09T04:08:48;81.68;;;9.38;;
71867;SDS011;59738;48.324;14.230;2022-09-09T04:11:18;29.20;;;8.50;;
71867;SDS011;59738;48.324;14.230;2022-09-09T04:13:48;12.07;;;6.43;;
71867;SDS011;59738;48.324;14.230;2022-09-09T04:16:17;9.18;;;5.43;;
71867;SDS011;59738;48.324;14.230;2022-09-09T04:18:46;11.93;;;5.28;;
71867;SDS011;59738;48.324;14.230;2022-09-09T04:21:16;20.83;;;6.45;;
71867;SDS011;59738;48.324;14.230;2022-09-09T04:23:45;12.13;;;5.72;;
71867;SDS011;59738;48.324;14.230;2022-09-09T04:26:13;14.83;;;5.73;;
71867;SDS011;59738;48.324;14.230;2022-09-09T04:28:43;12.57;;;6.03;;
71867;SDS011;59738;48.324;14.230;2022-09-09T04:31:15;26.30;;;6.60;;
71867;SDS011;59738;48.324;14.230;2022-09-09T04:33:47;205.70;;;8.35;;
71867;SDS011;59738;48.324;14.230;2022-09-09T04:36:16;164.35;;;7.18;;
71867;SDS011;59738;48.324;14.230;2022-09-09T04:38:47;121.97;;;8.77;;
71867;SDS011;59738;48.324;14.230;2022-09-09T04:41:15;198.48;;;9.32;;
71867;SDS011;59738;48.324;14.230;2022-09-09T04:43:44;180.48;;;7.90;;
71867;SDS011;59738;48.324;14.230;2022-09-09T04:46:13;34.63;;;7.78;;
71867;SDS011;59738;48.324;14.230;2022-09-09T04:48:44;16.38;;;8.48;;
71867;SDS011;59738;48.324;14.230;2022-09-09T04:51:13;18.20;;;8.13;;
71867;SDS011;59738;48.324;14.230;2022-09-09T04:53:44;16.65;;;7.20;;
71867;SDS011;59738;48.324;14.230;2022-09-09T04:56:13;11.57;;;5.95;;
71867;SDS011;59738;48.324;14.230;2022-09-09T04:58:50;11.85;;;6.53;;
71867;SDS011;59738;48.324;14.230;2022-09-09T05:01:21;16.10;;;7.32;;
71867;SDS011;59738;48.324;14.230;2022-09-09T05:03:51;14.17;;;6.87;;
71867;SDS011;59738;48.324;14.230;2022-09-09T05:06:22;19.38;;;6.57;;
71867;SDS011;59738;48.324;14.230;2022-09-09T05:08:55;81.53;;;6.40;;
71867;SDS011;59738;48.324;14.230;2022-09-09T05:11:26;169.52;;;8.23;;
71867;SDS011;59738;48.324;14.230;2022-09-09T05:13:59;78.65;;;6.72;;
71867;SDS011;59738;48.324;14.230;2022-09-09T05:16:29;34.47;;;6.47;;
71867;SDS011;59738;48.324;14.230;2022-09-09T05:18:56;10.77;;;5.72;;
71867;SDS011;59738;48.324;14.230;2022-09-09T05:21:27;11.75;;;5.90;;
71867;SDS011;59738;48.324;14.230;2022-09-09T05:23:56;10.30;;;5.53;;
71867;SDS011;59738;48.324;14.230;2022-09-09T05:26:24;11.55;;;5.78;;
71867;SDS011;59738;48.324;14.230;2022-09-09T05:28:52;12.57;;;5.80;;
71867;SDS011;59738;48.324;14.230;2022-09-09T05:31:20;318.33;;;11.35;;
71867;SDS011;59738;48.324;14.230;2022-09-09T05:33:50;175.18;;;8.88;;
71867;SDS011;59738;48.324;14.230;2022-09-09T05:36:19;12.65;;;6.05;;
71867;SDS011;59738;48.324;14.230;2022-09-09T05:38:50;12.45;;;6.28;;
71867;SDS011;59738;48.324;14.230;2022-09-09T05:41:21;10.47;;;5.70;;
71867;SDS011;59738;48.324;14.230;2022-09-09T05:43:50;8.55;;;5.38;;
71867;SDS011;59738;48.324;14.230;2022-09-09T05:46:19;11.20;;;5.57;;
71867;SDS011;59738;48.324;14.230;2022-09-09T05:48:50;8.73;;;5.53;;
71867;SDS011;59738;48.324;14.230;2022-09-09T05:51:21;14.55;;;5.40;;
71867;SDS011;59738;48.324;14.230;2022-09-09T05:53:51;22.17;;;5.23;;
71867;SDS011;59738;48.324;14.230;2022-09-09T05:56:20;11.18;;;5.05;;
71867;SDS011;59738;48.324;14.230;2022-09-09T05:58:51;13.10;;;6.57;;
71867;SDS011;59738;48.324;14.230;2022-09-09T06:01:21;15.32;;;7.43;;
71867;SDS011;59738;48.324;14.230;2022-09-09T06:03:50;16.75;;;8.32;;
71867;SDS011;59738;48.324;14.230;2022-09-09T06:06:19;13.03;;;5.97;;
71867;SDS011;59738;48.324;14.230;2022-09-09T06:08:48;10.27;;;5.50;;
71867;SDS011;59738;48.324;14.230;2022-09-09T06:11:18;48.10;;;6.07;;
71867;SDS011;59738;48.324;14.230;2022-09-09T06:13:49;272.58;;;13.30;;
71867;SDS011;59738;48.324;14.230;2022-09-09T06:16:19;85.47;;;7.32;;
71867;SDS011;59738;48.324;14.230;2022-09-09T06:18:49;141.13;;;8.03;;
71867;SDS011;59738;48.324;14.230;2022-09-09T06:21:19;130.35;;;7.55;;
71867;SDS011;59738;48.324;14.230;2022-09-09T06:23:47;90.18;;;7.28;;
71867;SDS011;59738;48.324;14.230;2022-09-09T06:26:18;70.53;;;7.70;;
71867;SDS011;59738;48.324;14.230;2022-09-09T06:28:50;30.27;;;7.63;;
71867;SDS011;59738;48.324;14.230;2022-09-09T06:31:19;136.80;;;9.90;;
71867;SDS011;59738;48.324;14.230;2022-09-09T06:33:49;65.72;;;9.10;;
71867;SDS011;59738;48.324;14.230;2022-09-09T06:36:19;117.43;;;10.43;;
71867;SDS011;59738;48.324;14.230;2022-09-09T06:38:47;26.77;;;9.20;;
71867;SDS011;59738;48.324;14.230;2022-09-09T06:41:15;30.50;;;9.65;;
71867;SDS011;59738;48.324;14.230;2022-09-09T06:43:44;17.63;;;8.90;;
71867;SDS011;59738;48.324;14.230;2022-09-09T06:46:14;23.20;;;9.25;;
71867;SDS011;59738;48.324;14.230;2022-09-09T06:48:45;20.58;;;9.70;;
71867;SDS011;59738;48.324;14.230;2022-09-09T06:51:15;24.83;;;9.27;;
71867;SDS011;59738;48.324;14.230;2022-09-09T06:53:45;42.60;;;9.27;;
71867;SDS011;59738;48.324;14.230;2022-09-09T06:56:18;43.43;;;9.10;;
71867;SDS011;59738;48.324;14.230;2022-09-09T06:58:49;89.88;;;9.98;;
71867;SDS011;59738;48.324;14.230;2022-09-09T07:01:26;21.00;;;9.15;;
71867;SDS011;59738;48.324;14.230;2022-09-09T07:03:58;15.73;;;7.97;;
71867;SDS011;59738;48.324;14.230;2022-09-09T07:06:27;15.02;;;8.38;;
71867;SDS011;59738;48.324;14.230;2022-09-09T07:08:58;18.73;;;8.83;;
71867;SDS011;59738;48.324;14.230;2022-09-09T07:11:29;17.90;;;9.88;;
71867;SDS011;59738;48.324;14.230;2022-09-09T07:13:58;20.30;;;10.38;;
71867;SDS011;59738;48.324;14.230;2022-09-09T07:16:28;18.95;;;10.13;;
71867;SDS011;59738;48.324;14.230;2022-09-09T07:18:58;20.38;;;10.40;;
71867;SDS011;59738;48.324;14.230;2022-09-09T07:21:27;15.73;;;9.30;;
71867;SDS011;59738;48.324;14.230;2022-09-09T07:23:56;17.45;;;9.10;;
71867;SDS011;59738;48.324;14.230;2022-09-09T07:26:24;14.93;;;8.73;;
71867;SDS011;59738;48.324;14.230;2022-09-09T07:28:54;13.68;;;7.82;;
71867;SDS011;59738;48.324;14.230;2022-09-09T07:31:23;12.43;;;7.68;;
71867;SDS011;59738;48.324;14.230;2022-09-09T07:33:54;14.17;;;7.83;;
71867;SDS011;59738;48.324;14.230;2022-09-09T07:36:23;14.50;;;8.10;;
71867;SDS011;59738;48.324;14.230;2022-09-09T07:38:53;14.27;;;6.68;;
71867;SDS011;59738;48.324;14.230;2022-09-09T07:41:22;10.63;;;6.30;;
71867;SDS011;59738;48.324;14.230;2022-09-09T07:43:51;11.55;;;6.43;;
71867;SDS011;59738;48.324;14.230;2022-09-09T07:46:21;14.50;;;7.63;;
71867;SDS011;59738;48.324;14.230;2022-09-09T07:48:51;16.95;;;8.75;;
71867;SDS011;59738;48.324;14.230;2022-09-09T07:51:26;15.57;;;8.60;;
71867;SDS011;59738;48.324;14.230;2022-09-09T07:53:55;15.05;;;9.02;;
71867;SDS011;59738;48.324;14.230;2022-09-09T07:56:25;15.63;;;9.07;;
71867;SDS011;59738;48.324;14.230;2022-09-09T07:58:54;14.73;;;9.40;;
71867;SDS011;59738;48.324;14.230;2022-09-09T08:01:23;16.70;;;9.45;;
71867;SDS011;59738;48.324;14.230;2022-09-09T08:03:53;14.82;;;8.30;;
71867;SDS011;59738;48.324;14.230;2022-09-09T08:06:26;14.68;;;9.40;;
71867;SDS011;59738;48.324;14.230;2022-09-09T08:08:54;15.02;;;8.60;;
71867;SDS011;59738;48.324;14.230;2022-09-09T08:11:23;15.73;;;9.33;;
71867;SDS011;59738;48.324;14.230;2022-09-09T08:13:51;18.05;;;9.75;;
71867;SDS011;59738;48.324;14.230;2022-09-09T08:16:20;17.15;;;9.82;;
71867;SDS011;59738;48.324;14.230;2022-09-09T08:18:51;19.92;;;10.35;;
71867;SDS011;59738;48.324;14.230;2022-09-09T08:21:20;19.33;;;10.77;;
71867;SDS011;59738;48.324;14.230;2022-09-09T08:23:51;22.90;;;11.30;;
71867;SDS011;59738;48.324;14.230;2022-09-09T08:26:20;19.17;;;10.75;;
71867;SDS011;59738;48.324;14.230;2022-09-09T08:28:49;19.42;;;10.15;;
71867;SDS011;59738;48.324;14.230;2022-09-09T08:31:19;17.48;;;10.10;;
71867;SDS011;59738;48.324;14.230;2022-09-09T08:33:48;18.58;;;10.23;;
71867;SDS011;59738;48.324;14.230;2022-09-09T08:36:16;16.17;;;9.53;;
71867;SDS011;59738;48.324;14.230;2022-09-09T08:38:47;17.45;;;9.50;;
71867;SDS011;59738;48.324;14.230;2022-09-09T08:41:27;17.00;;;8.55;;
71867;SDS011;59738;48.324;14.230;2022-09-09T08:44:04;15.30;;;7.97;;
71867;SDS011;59738;48.324;14.230;2022-09-09T08:46:36;14.23;;;8.10;;
71867;SDS011;59738;48.324;14.230;2022-09-09T08:49:13;22.43;;;9.47;;
71867;SDS011;59738;48.324;14.230;2022-09-09T08:51:47;14.68;;;7.57;;
71867;SDS011;59738;48.324;14.230;2022-09-09T08:54:16;14.75;;;7.45;;
71867;SDS011;59738;48.324;14.230;2022-09-09T08:56:46;13.63;;;7.78;;
71867;SDS011;59738;48.324;14.230;2022-09-09T08:59:14;12.63;;;7.22;;
71867;SDS011;59738;48.324;14.230;2022-09-09T09:01:50;18.13;;;8.70;;
71867;SDS011;59738;48.324;14.230;2022-09-09T09:04:31;14.05;;;7.75;;
71867;SDS011;59738;48.324;14.230;2022-09-09T09:07:08;15.85;;;8.98;;
71867;SDS011;59738;48.324;14.230;2022-09-09T09:09:43;17.15;;;9.20;;
71867;SDS011;59738;48.324;14.230;2022-09-09T09:12:17;16.27;;;9.63;;
71867;SDS011;59738;48.324;14.230;2022-09-09T09:14:47;18.27;;;8.97;;
71867;SDS011;59738;48.324;14.230;2022-09-09T09:17:16;18.70;;;7.88;;
71867;SDS011;59738;48.324;14.230;2022-09-09T09:19:46;14.80;;;8.15;;
71867;SDS011;59738;48.324;14.230;2022-09-09T09:22:16;14.13;;;7.82;;
71867;SDS011;59738;48.324;14.230;2022-09-09T09:24:50;16.63;;;7.50;;
71867;SDS011;59738;48.324;14.230;2022-09-09T09:27:28;17.33;;;7.20;;
71867;SDS011;59738;48.324;14.230;2022-09-09T09:29:59;15.88;;;7.68;;
71867;SDS011;59738;48.324;14.230;2022-09-09T09:32:30;16.55;;;7.88;;
71867;SDS011;59738;48.324;14.230;2022-09-09T09:35:01;13.23;;;7.40;;
71867;SDS011;59738;48.324;14.230;2022-09-09T09:37:31;15.48;;;7.20;;
71867;SDS011;59738;48.324;14.230;2022-09-09T09:40:09;11.07;;;7.33;;
71867;SDS011;59738;48.324;14.230;2022-09-09T09:42:46;15.52;;;7.57;;
71867;SDS011;59738;48.324;14.230;2022-09-09T09:45:16;9.75;;;6.60;;
71867;SDS011;59738;48.324;14.230;2022-09-09T09:47:46;11.63;;;7.13;;
71867;SDS011;59738;48.324;14.230;2022-09-09T09:50:17;13.23;;;6.93;;
71867;SDS011;59738;48.324;14.230;2022-09-09T09:52:53;11.27;;;7.30;;
71867;SDS011;59738;48.324;14.230;2022-09-09T09:55:23;11.73;;;6.35;;
71867;SDS011;59738;48.324;14.230;2022-09-09T09:57:52;13.38;;;7.18;;
71867;SDS011;59738;48.324;14.230;2022-09-09T10:00:20;17.00;;;7.35;;
71867;SDS011;59738;48.324;14.230;2022-09-09T10:02:58;12.13;;;7.65;;
71867;SDS011;59738;48.324;14.230;2022-09-09T10:05:29;10.87;;;6.63;;
71867;SDS011;59738;48.324;14.230;2022-09-09T10:08:05;9.60;;;6.38;;
71867;SDS011;59738;48.324;14.230;2022-09-09T10:10:42;9.57;;;6.32;;
71867;SDS011;59738;48.324;14.230;2022-09-09T10:13:20;8.48;;;4.65;;
71867;SDS011;59738;48.324;14.230;2022-09-09T10:15:57;4.32;;;3.15;;
71867;SDS011;59738;48.324;14.230;2022-09-09T10:18:38;7.10;;;4.03;;
71867;SDS011;59738;48.324;14.230;2022-09-09T10:21:16;4.40;;;3.60;;
71867;SDS011;59738;48.324;14.230;2022-09-09T10:23:58;5.32;;;3.53;;
71867;SDS011;59738;48.324;14.230;2022-09-09T10:26:35;4.43;;;2.67;;
71867;SDS011;59738;48.324;14.230;2022-09-09T10:32:01;3.77;;;1.63;;
71867;SDS011;59738;48.324;14.230;2022-09-09T10:34:39;1.98;;;1.80;;
71867;SDS011;59738;48.324;14.230;2022-09-09T10:37:18;15.23;;;6.53;;
71867;SDS011;59738;48.324;14.230;2022-09-09T10:39:53;12.63;;;7.85;;
71867;SDS011;59738;48.324;14.230;2022-09-09T10:42:26;13.98;;;7.60;;
71867;SDS011;59738;48.324;14.230;2022-09-09T10:45:00;10.90;;;7.27;;
71867;SDS011;59738;48.324;14.230;2022-09-09T10:47:43;12.98;;;7.70;;
71867;SDS011;59738;48.324;14.230;2022-09-09T10:50:24;11.00;;;6.55;;
71867;SDS011;59738;48.324;14.230;2022-09-09T10:53:11;13.35;;;6.93;;
71867;SDS011;59738;48.324;14.230;2022-09-09T10:55:42;10.63;;;6.28;;
71867;SDS011;59738;48.324;14.230;2022-09-09T10:58:12;10.27;;;5.50;;
71867;SDS011;59738;48.324;14.230;2022-09-09T11:00:48;11.70;;;6.22;;
71867;SDS011;59738;48.324;14.230;2022-09-09T11:03:19;11.77;;;6.10;;
71867;SDS011;59738;48.324;14.230;2022-09-09T11:05:49;13.90;;;6.85;;
71867;SDS011;59738;48.324;14.230;2022-09-09T11:08:20;14.77;;;7.35;;
71867;SDS011;59738;48.324;14.230;2022-09-09T11:10:50;14.13;;;6.60;;
71867;SDS011;59738;48.324;14.230;2022-09-09T11:13:23;13.90;;;7.28;;
71867;SDS011;59738;48.324;14.230;2022-09-09T11:15:54;9.93;;;6.22;;
71867;SDS011;59738;48.324;14.230;2022-09-09T11:18:26;8.38;;;5.88;;
71867;SDS011;59738;48.324;14.230;2022-09-09T11:20:58;8.43;;;5.60;;
71867;SDS011;59738;48.324;14.230;2022-09-09T11:23:29;15.20;;;9.20;;
71867;SDS011;59738;48.324;14.230;2022-09-09T11:26:01;15.10;;;8.55;;
71867;SDS011;59738;48.324;14.230;2022-09-09T11:28:33;15.02;;;8.57;;
71867;SDS011;59738;48.324;14.230;2022-09-09T11:31:16;15.35;;;8.95;;
71867;SDS011;59738;48.324;14.230;2022-09-09T11:33:59;14.00;;;9.60;;
71867;SDS011;59738;48.324;14.230;2022-09-09T11:39:59;16.48;;;10.68;;
71867;SDS011;59738;48.324;14.230;2022-09-09T11:42:35;20.48;;;11.38;;
71867;SDS011;59738;48.324;14.230;2022-09-09T11:45:09;20.85;;;12.43;;
71867;SDS011;59738;48.324;14.230;2022-09-09T11:47:40;21.65;;;13.32;;
71867;SDS011;59738;48.324;14.230;2022-09-09T11:50:27;21.30;;;12.47;;
71867;SDS011;59738;48.324;14.230;2022-09-09T11:53:06;21.23;;;12.63;;
71867;SDS011;59738;48.324;14.230;2022-09-09T11:55:48;26.35;;;14.05;;
71867;SDS011;59738;48.324;14.230;2022-09-09T11:58:28;20.25;;;12.27;;
71867;SDS011;59738;48.324;14.230;2022-09-09T12:00:59;19.35;;;11.63;;
71867;SDS011;59738;48.324;14.230;2022-09-09T12:03:35;19.23;;;11.10;;
71867;SDS011;59738;48.324;14.230;2022-09-09T12:06:15;19.25;;;10.85;;
71867;SDS011;59738;48.324;14.230;2022-09-09T12:08:47;19.38;;;11.35;;
71867;SDS011;59738;48.324;14.230;2022-09-09T12:11:25;16.40;;;10.40;;
71867;SDS011;59738;48.324;14.230;2022-09-09T12:13:54;19.33;;;12.07;;
71867;SDS011;59738;48.324;14.230;2022-09-09T12:16:29;18.30;;;11.47;;
71867;SDS011;59738;48.324;14.230;2022-09-09T12:19:13;23.63;;;11.52;;
71867;SDS011;59738;48.324;14.230;2022-09-09T12:21:44;18.08;;;10.75;;
71867;SDS011;59738;48.324;14.230;2022-09-09T12:24:16;17.90;;;10.60;;
71867;SDS011;59738;48.324;14.230;2022-09-09T12:26:51;17.58;;;10.25;;
71867;SDS011;59738;48.324;14.230;2022-09-09T12:29:24;17.73;;;10.67;;
71867;SDS011;59738;48.324;14.230;2022-09-09T12:31:56;19.65;;;11.50;;
71867;SDS011;59738;48.324;14.230;2022-09-09T12:34:32;18.50;;;12.52;;
71867;SDS011;59738;48.324;14.230;2022-09-09T12:37:04;20.15;;;11.45;;
71867;SDS011;59738;48.324;14.230;2022-09-09T12:39:35;20.80;;;12.48;;
71867;SDS011;59738;48.324;14.230;2022-09-09T12:42:14;21.03;;;12.67;;
71867;SDS011;59738;48.324;14.230;2022-09-09T12:44:50;23.00;;;12.90;;
71867;SDS011;59738;48.324;14.230;2022-09-09T12:47:18;21.40;;;13.95;;
71867;SDS011;59738;48.324;14.230;2022-09-09T12:49:48;24.85;;;14.27;;
71867;SDS011;59738;48.324;14.230;2022-09-09T12:52:18;19.00;;;13.07;;
71867;SDS011;59738;48.324;14.230;2022-09-09T12:54:50;19.43;;;13.07;;
71867;SDS011;59738;48.324;14.230;2022-09-09T12:57:21;21.00;;;12.65;;
71867;SDS011;59738;48.324;14.230;2022-09-09T12:59:51;20.77;;;12.60;;
71867;SDS011;59738;48.324;14.230;2022-09-09T13:02:21;24.95;;;13.73;;
71867;SDS011;59738;48.324;14.230;2022-09-09T13:04:52;20.40;;;12.10;;
71867;SDS011;59738;48.324;14.230;2022-09-09T13:07:20;21.07;;;12.50;;
71867;SDS011;59738;48.324;14.230;2022-09-09T13:09:49;18.38;;;11.40;;
71867;SDS011;59738;48.324;14.230;2022-09-09T13:12:18;18.08;;;11.80;;
71867;SDS011;59738;48.324;14.230;2022-09-09T13:14:46;18.42;;;11.55;;
71867;SDS011;59738;48.324;14.230;2022-09-09T13:17:20;19.50;;;11.93;;
71867;SDS011;59738;48.324;14.230;2022-09-09T13:19:49;16.37;;;11.07;;
71867;SDS011;59738;48.324;14.230;2022-09-09T13:22:21;16.00;;;10.30;;
71867;SDS011;59738;48.324;14.230;2022-09-09T13:25:00;17.98;;;10.40;;
71867;SDS011;59738;48.324;14.230;2022-09-09T13:27:30;17.80;;;10.68;;
71867;SDS011;59738;48.324;14.230;2022-09-09T13:30:00;16.67;;;10.50;;
71867;SDS011;59738;48.324;14.230;2022-09-09T13:32:28;18.53;;;10.53;;
71867;SDS011;59738;48.324;14.230;2022-09-09T13:34:57;18.77;;;10.85;;
71867;SDS011;59738;48.324;14.230;2022-09-09T13:37:30;16.02;;;10.90;;
71867;SDS011;59738;48.324;14.230;2022-09-09T13:40:00;16.35;;;10.00;;
71867;SDS011;59738;48.324;14.230;2022-09-09T13:42:29;19.80;;;10.90;;
71867;SDS011;59738;48.324;14.230;2022-09-09T13:44:58;18.00;;;10.70;;
71867;SDS011;59738;48.324;14.230;2022-09-09T13:47:28;17.92;;;10.10;;
71867;SDS011;59738;48.324;14.230;2022-09-09T13:49:57;19.65;;;11.13;;
71867;SDS011;59738;48.324;14.230;2022-09-09T13:52:30;17.08;;;10.55;;
71867;SDS011;59738;48.324;14.230;2022-09-09T13:54:59;17.35;;;9.98;;
71867;SDS011;59738;48.324;14.230;2022-09-09T13:57:27;15.13;;;10.10;;
71867;SDS011;59738;48.324;14.230;2022-09-09T13:59:54;14.50;;;9.48;;
71867;SDS011;59738;48.324;14.230;2022-09-09T14:02:22;14.43;;;8.50;;
71867;SDS011;59738;48.324;14.230;2022-09-09T14:04:50;15.77;;;8.88;;
71867;SDS011;59738;48.324;14.230;2022-09-09T14:07:21;15.23;;;9.25;;
71867;SDS011;59738;48.324;14.230;2022-09-09T14:09:50;14.50;;;9.07;;
71867;SDS011;59738;48.324;14.230;2022-09-09T14:12:18;15.05;;;8.43;;
71867;SDS011;59738;48.324;14.230;2022-09-09T14:14:45;17.08;;;9.20;;
71867;SDS011;59738;48.324;14.230;2022-09-09T14:17:13;14.43;;;8.52;;
71867;SDS011;59738;48.324;14.230;2022-09-09T14:19:40;15.60;;;8.90;;
71867;SDS011;59738;48.324;14.230;2022-09-09T14:22:08;16.87;;;9.57;;
71867;SDS011;59738;48.324;14.230;2022-09-09T14:24:36;18.02;;;9.88;;
71867;SDS011;59738;48.324;14.230;2022-09-09T14:27:05;18.23;;;10.13;;
71867;SDS011;59738;48.324;14.230;2022-09-09T14:29:33;17.67;;;10.15;;
71867;SDS011;59738;48.324;14.230;2022-09-09T14:32:00;20.33;;;11.45;;
71867;SDS011;59738;48.324;14.230;2022-09-09T14:34:28;18.43;;;12.10;;
71867;SDS011;59738;48.324;14.230;2022-09-09T14:36:57;25.17;;;11.93;;
71867;SDS011;59738;48.324;14.230;2022-09-09T14:39:25;19.55;;;12.18;;
71867;SDS011;59738;48.324;14.230;2022-09-09T14:41:52;21.83;;;11.20;;
71867;SDS011;59738;48.324;14.230;2022-09-09T14:44:21;22.85;;;11.63;;
71867;SDS011;59738;48.324;14.230;2022-09-09T14:46:49;18.73;;;11.80;;
71867;SDS011;59738;48.324;14.230;2022-09-09T14:49:17;21.55;;;12.38;;
71867;SDS011;59738;48.324;14.230;2022-09-09T14:51:44;17.00;;;10.88;;
71867;SDS011;59738;48.324;14.230;2022-09-09T14:54:11;18.90;;;10.50;;